Time;durP1;ratioP1;P1;durP2;ratioP2;P2;SDS_P1;SDS_P2;PMS_P1;PMS_P2;Temp;Humidity;BMP_temperature;BMP_pressure;BME280_temperature;BME280_humidity;BME280_pressure;Samples;Min_cycle;Max_cycle;Signal;HPM_P1;HPM_P2
2023/01/31 00:01:37;;;;;;;;;;;;;;;7.81;54.64;101489.56;4983579;28;6811;-71
2023/01/31 00:04:07;;;;;;;;;;;;;;;7.78;54.73;101480.00;4971713;28;6803;-71
2023/01/31 00:06:43;;;;;;;;;;;;;;;7.75;54.24;101477.25;4974045;28;7171;-71
2023/01/31 00:09:11;;;;;;;;;;;;;;;7.72;54.23;101480.44;4982285;28;6812;-71
2023/01/31 00:11:37;;;;;;;;;;;;;;;7.70;55.24;101475.97;4981733;28;6792;-71
2023/01/31 00:14:05;;;;;;;;;;;;;;;7.68;55.30;101477.53;5002875;28;7229;-71
2023/01/31 00:16:31;;;;;;;;;;;;;;;7.66;55.24;101486.72;5002640;28;7011;-72
2023/01/31 00:18:57;;;;;;;;;;;;;;;7.62;55.31;101493.25;4998641;28;6780;-71
2023/01/31 00:21:27;;;;;;;;;;;;;;;7.59;55.46;101487.94;4986305;28;6788;-72
2023/01/31 00:23:54;;;;;;;;;;;;;;;7.57;55.21;101490.34;4998960;28;6800;-71
2023/01/31 00:26:32;;;;;;;;;;;;;;;7.54;55.42;101495.22;4978311;28;7066;-71
2023/01/31 00:29:02;;;;;;;;;;;;;;;7.53;54.95;101493.41;4980649;28;7009;-72
2023/01/31 00:31:30;;;;;;;;;;;;;;;7.56;55.91;101491.13;4961311;28;7298;-72
2023/01/31 00:33:57;;;;;;;;;;;;;;;7.59;55.65;101488.81;4986319;28;7003;-71
2023/01/31 00:36:30;;;;;;;;;;;;;;;7.59;55.16;101488.81;4967885;28;7000;-71
2023/01/31 00:38:59;;;;;;;;;;;;;;;7.58;54.83;101479.38;4966593;28;7015;-72
2023/01/31 00:41:28;;;;;;;;;;;;;;;7.55;55.29;101480.78;4978147;28;6811;-72
2023/01/31 00:43:53;;;;;;;;;;;;;;;7.52;55.47;101486.53;4983009;28;6796;-71
2023/01/31 00:46:20;;;;;;;;;;;;;;;7.48;55.42;101492.19;4986182;28;6768;-71
2023/01/31 00:48:47;;;;;;;;;;;;;;;7.41;55.58;101482.25;4984035;28;7003;-72
2023/01/31 00:51:13;;;;;;;;;;;;;;;7.38;55.30;101490.56;4983364;28;6851;-72
2023/01/31 00:53:38;;;;;;;;;;;;;;;7.33;55.07;101490.19;4983370;28;6784;-72
2023/01/31 00:56:11;;;;;;;;;;;;;;;7.30;55.20;101484.00;4997451;28;6787;-71
2023/01/31 00:58:40;;;;;;;;;;;;;;;7.29;56.18;101483.09;4986820;28;7223;-71
2023/01/31 01:01:20;;;;;;;;;;;;;;;7.30;55.64;101484.00;4983753;28;7153;-71
2023/01/31 01:03:47;;;;;;;;;;;;;;;7.33;56.30;101482.53;4986213;28;7003;-71
2023/01/31 01:06:14;;;;;;;;;;;;;;;7.36;55.52;101480.25;4986710;28;6815;-71
2023/01/31 01:08:42;;;;;;;;;;;;;;;7.41;55.98;101475.53;4968700;28;6982;-71
2023/01/31 01:11:14;;;;;;;;;;;;;;;7.45;55.54;101477.53;4970888;28;6788;-71
2023/01/31 01:13:41;;;;;;;;;;;;;;;7.46;56.28;101473.31;4965623;28;8721;-71
2023/01/31 01:16:24;;;;;;;;;;;;;;;7.51;55.99;101479.66;4999385;28;6808;-71
2023/01/31 01:18:53;;;;;;;;;;;;;;;7.52;56.48;101468.69;4985230;28;6804;-72
2023/01/31 01:21:25;;;;;;;;;;;;;;;7.53;56.42;101470.47;4984117;28;6867;-71
2023/01/31 01:23:54;;;;;;;;;;;;;;;7.53;55.84;101467.91;4987690;28;6788;-71
2023/01/31 01:26:25;;;;;;;;;;;;;;;7.56;56.34;101463.06;4983833;28;7146;-72
2023/01/31 01:28:53;;;;;;;;;;;;;;;7.58;55.90;101460.59;4986729;28;6796;-72
2023/01/31 01:31:20;;;;;;;;;;;;;;;7.59;56.49;101468.38;4985974;28;6928;-72
2023/01/31 01:33:48;;;;;;;;;;;;;;;7.62;56.11;101476.28;4994941;28;6951;-71
2023/01/31 01:36:20;;;;;;;;;;;;;;;7.64;56.73;101477.31;4983503;28;7199;-71
2023/01/31 01:38:46;;;;;;;;;;;;;;;7.66;55.94;101471.44;4985485;28;7710;-71
2023/01/31 01:41:13;;;;;;;;;;;;;;;7.69;55.94;101466.53;4985031;28;7162;-71
2023/01/31 01:43:55;;;;;;;;;;;;;;;7.70;55.90;101471.78;4978563;28;6788;-71
2023/01/31 01:46:26;;;;;;;;;;;;;;;7.69;56.00;101464.91;4980347;28;6823;-71
2023/01/31 01:49:32;;;;;;;;;;;;;;;7.69;56.90;101466.53;4988378;28;7019;-71
2023/01/31 01:52:05;;;;;;;;;;;;;;;7.68;56.06;101462.22;4994046;28;8022;-71
2023/01/31 01:55:03;;;;;;;;;;;;;;;7.65;55.61;101465.41;4982904;28;6808;-71
2023/01/31 01:57:36;;;;;;;;;;;;;;;7.60;56.47;101461.63;4984940;28;6819;-71
2023/01/31 02:00:18;;;;;;;;;;;;;;;7.58;55.80;101461.50;4981890;28;6812;-71
2023/01/31 02:02:48;;;;;;;;;;;;;;;7.55;56.83;101460.38;4983241;28;11166;-72
2023/01/31 02:05:21;;;;;;;;;;;;;;;7.55;56.09;101457.81;4985979;28;7332;-71
2023/01/31 02:07:47;;;;;;;;;;;;;;;7.52;56.69;101458.47;4995646;28;6791;-71
2023/01/31 02:10:30;;;;;;;;;;;;;;;7.49;56.56;101448.03;5001146;28;6867;-71
2023/01/31 02:12:56;;;;;;;;;;;;;;;7.45;56.10;101448.59;4988022;28;6815;-71
2023/01/31 02:15:23;;;;;;;;;;;;;;;7.45;56.66;101453.69;4999090;28;7223;-71
2023/01/31 02:17:49;;;;;;;;;;;;;;;7.43;56.80;101445.00;4979942;28;6792;-72
2023/01/31 02:20:49;;;;;;;;;;;;;;;7.39;56.55;101453.19;4994231;28;6787;-72
2023/01/31 02:24:09;;;;;;;;;;;;;;;7.36;57.13;101439.44;5000111;28;6827;-71
2023/01/31 02:26:53;;;;;;;;;;;;;;;7.32;57.36;101444.19;4990059;28;6828;-71
2023/01/31 02:30:00;;;;;;;;;;;;;;;7.31;56.95;101439.88;4995398;28;6998;-71
2023/01/31 02:32:48;;;;;;;;;;;;;;;7.30;57.31;101446.63;4993697;28;7017;-71
2023/01/31 02:36:08;;;;;;;;;;;;;;;7.28;57.04;101443.06;4994699;28;6820;-71
2023/01/31 02:39:38;;;;;;;;;;;;;;;7.29;58.13;101446.47;4977745;28;7165;-71
2023/01/31 02:43:01;;;;;;;;;;;;;;;7.28;57.29;101454.91;4953076;28;6824;-71
2023/01/31 02:46:35;;;;;;;;;;;;;;;7.28;57.40;101454.91;4985237;28;7186;-71
2023/01/31 02:49:34;;;;;;;;;;;;;;;7.27;57.45;101450.56;4912335;29;6816;-71
2023/01/31 02:52:30;;;;;;;;;;;;;;;7.29;58.57;101452.50;4900754;29;7337;-71
2023/01/31 02:58:02;;;;;;;;;;;;;;;7.31;57.70;101465.38;4991541;28;6999;-72
2023/01/31 03:00:34;;;;;;;;;;;;;;;7.33;58.76;101469.78;4982331;28;6807;-71
2023/01/31 03:03:11;;;;;;;;;;;;;;;7.35;58.52;101463.19;4981426;28;6832;-71
2023/01/31 03:05:37;;;;;;;;;;;;;;;7.38;58.68;101454.84;4985171;28;7757;-71
2023/01/31 03:08:06;;;;;;;;;;;;;;;7.41;58.46;101451.66;4979777;28;7384;-71
2023/01/31 03:11:11;;;;;;;;;;;;;;;7.42;57.82;101449.22;4987902;28;6796;-71
2023/01/31 03:14:31;;;;;;;;;;;;;;;7.41;57.93;101452.56;4953914;28;8045;-71
2023/01/31 03:17:57;;;;;;;;;;;;;;;7.40;58.06;101442.22;4923647;29;7181;-71
2023/01/31 03:20:46;;;;;;;;;;;;;;;7.39;59.02;101431.16;4981013;28;6808;-71
2023/01/31 03:23:28;;;;;;;;;;;;;;;7.40;58.15;101432.94;4969145;28;7287;-72
2023/01/31 03:25:58;;;;;;;;;;;;;;;7.40;58.29;101425.28;4996424;28;6945;-72
2023/01/31 03:28:35;;;;;;;;;;;;;;;7.41;58.01;101426.16;4982182;28;6968;-72
2023/01/31 03:31:15;;;;;;;;;;;;;;;7.42;58.68;101418.63;4993226;28;6813;-72
2023/01/31 03:33:51;;;;;;;;;;;;;;;7.42;58.77;101412.63;4975905;28;6860;-72
2023/01/31 03:36:49;;;;;;;;;;;;;;;7.42;59.17;101402.41;4967338;28;7269;-72
2023/01/31 03:39:43;;;;;;;;;;;;;;;7.41;59.67;101408.28;4983406;28;7000;-72
2023/01/31 03:42:24;;;;;;;;;;;;;;;7.42;58.81;101407.53;4984577;28;6836;-72
2023/01/31 03:45:02;;;;;;;;;;;;;;;7.44;59.38;101416.19;4989642;28;6816;-71
2023/01/31 03:47:37;;;;;;;;;;;;;;;7.49;59.77;101415.78;4979723;28;6800;-72
2023/01/31 03:50:12;;;;;;;;;;;;;;;7.55;59.41;101411.91;4994420;28;6803;-72
2023/01/31 03:52:50;;;;;;;;;;;;;;;7.62;59.52;101404.81;4976300;28;7304;-72
2023/01/31 03:55:29;;;;;;;;;;;;;;;7.72;59.00;101413.19;4993583;28;6811;-72
2023/01/31 03:58:01;;;;;;;;;;;;;;;7.79;59.62;101423.09;4979270;28;6811;-73
2023/01/31 04:00:28;;;;;;;;;;;;;;;7.87;59.26;101413.44;4980828;28;6883;-72
2023/01/31 04:03:10;;;;;;;;;;;;;;;7.94;59.32;101407.16;4980806;28;7982;-73
2023/01/31 04:05:36;;;;;;;;;;;;;;;7.96;58.90;101411.59;4982841;28;6808;-72
2023/01/31 04:08:02;;;;;;;;;;;;;;;8.03;59.16;101411.28;4993427;28;6787;-72
2023/01/31 04:10:27;;;;;;;;;;;;;;;8.07;59.18;101412.41;4980645;28;6987;-73
2023/01/31 04:12:53;;;;;;;;;;;;;;;8.11;58.65;101404.22;4987838;28;6772;-72
2023/01/31 04:15:19;;;;;;;;;;;;;;;8.11;58.40;101398.19;4983089;28;6784;-73
2023/01/31 04:17:45;;;;;;;;;;;;;;;8.11;59.30;101393.09;4986318;28;6974;-72
2023/01/31 04:20:11;;;;;;;;;;;;;;;8.09;58.09;101395.53;4979228;28;7215;-73
2023/01/31 04:22:37;;;;;;;;;;;;;;;8.09;58.40;101410.84;4978120;28;6783;-72
2023/01/31 04:25:04;;;;;;;;;;;;;;;8.07;58.18;101402.19;4988484;28;6784;-72
2023/01/31 04:27:30;;;;;;;;;;;;;;;8.04;59.22;101399.41;4973685;28;6864;-73
2023/01/31 04:29:55;;;;;;;;;;;;;;;8.04;59.02;101394.31;4991981;28;6827;-72
2023/01/31 04:32:21;;;;;;;;;;;;;;;8.00;58.13;101387.16;5000315;28;6768;-72
2023/01/31 04:34:49;;;;;;;;;;;;;;;7.97;57.92;101389.50;4985689;28;6968;-73
2023/01/31 04:37:16;;;;;;;;;;;;;;;7.92;57.88;101392.63;4984460;28;7952;-72
2023/01/31 04:39:41;;;;;;;;;;;;;;;7.89;57.81;101389.81;4997533;28;6808;-73
2023/01/31 04:42:07;;;;;;;;;;;;;;;7.88;57.91;101385.50;4981517;28;6772;-73
2023/01/31 04:44:32;;;;;;;;;;;;;;;7.87;57.92;101382.81;4996636;28;6796;-73
2023/01/31 04:46:58;;;;;;;;;;;;;;;7.86;58.02;101388.69;4997461;28;6852;-73
2023/01/31 04:49:24;;;;;;;;;;;;;;;7.85;58.59;101394.56;4977652;28;11616;-73
2023/01/31 04:51:50;;;;;;;;;;;;;;;7.81;57.80;101378.13;4981931;28;8479;-73
2023/01/31 04:54:15;;;;;;;;;;;;;;;7.79;57.86;101389.91;4994344;28;6968;-72
2023/01/31 04:56:41;;;;;;;;;;;;;;;7.78;58.38;101393.22;4976977;28;6784;-73
2023/01/31 04:59:07;;;;;;;;;;;;;;;7.78;58.93;101390.69;4997598;28;6776;-73
2023/01/31 05:01:32;;;;;;;;;;;;;;;7.80;58.06;101394.22;4983567;28;6927;-73
2023/01/31 05:03:58;;;;;;;;;;;;;;;7.80;59.03;101386.56;4995181;28;7245;-73
2023/01/31 05:06:23;;;;;;;;;;;;;;;7.80;58.78;101378.91;4978483;28;6839;-73
2023/01/31 05:08:51;;;;;;;;;;;;;;;7.80;58.13;101368.72;4984634;28;6804;-74
2023/01/31 05:11:17;;;;;;;;;;;;;;;7.78;58.22;101367.72;4998004;28;7106;-73
2023/01/31 05:13:44;;;;;;;;;;;;;;;7.75;58.47;101358.16;4988263;28;9311;-73
2023/01/31 05:16:11;;;;;;;;;;;;;;;7.74;58.83;101360.63;4990368;28;7378;-73
2023/01/31 05:18:37;;;;;;;;;;;;;;;7.74;57.73;101366.59;4980820;28;7066;-73
2023/01/31 05:21:05;;;;;;;;;;;;;;;7.72;57.49;101363.03;4970366;28;7023;-73
2023/01/31 05:23:32;;;;;;;;;;;;;;;7.71;57.73;101351.06;4983915;28;7729;-73
2023/01/31 05:25:58;;;;;;;;;;;;;;;7.69;58.77;101356.81;4981904;28;7141;-73
2023/01/31 05:28:25;;;;;;;;;;;;;;;7.66;58.07;101354.03;4976242;28;7201;-73
2023/01/31 05:31:02;;;;;;;;;;;;;;;7.63;57.34;101352.16;4996042;28;7241;-73
2023/01/31 05:33:30;;;;;;;;;;;;;;;7.60;58.56;101347.69;4999880;28;6800;-73
2023/01/31 05:35:56;;;;;;;;;;;;;;;7.58;57.91;101356.91;4995394;28;7192;-73
2023/01/31 05:38:22;;;;;;;;;;;;;;;7.59;58.37;101348.47;4993884;28;7189;-72
2023/01/31 05:40:49;;;;;;;;;;;;;;;7.59;58.62;101353.56;4992660;28;6768;-73
2023/01/31 05:43:15;;;;;;;;;;;;;;;7.61;58.54;101352.03;4993330;28;6791;-72
2023/01/31 05:45:40;;;;;;;;;;;;;;;7.63;58.40;101352.16;4994888;28;7332;-73
2023/01/31 05:48:07;;;;;;;;;;;;;;;7.67;57.56;101343.06;4996560;28;8317;-72
2023/01/31 05:50:33;;;;;;;;;;;;;;;7.64;58.92;101333.50;4995680;28;6787;-73
2023/01/31 05:52:59;;;;;;;;;;;;;;;7.64;58.02;101326.75;5002435;28;7181;-73
2023/01/31 05:55:26;;;;;;;;;;;;;;;7.64;58.73;101318.19;4977367;28;6791;-73
2023/01/31 05:57:53;;;;;;;;;;;;;;;7.63;58.10;101316.41;4981828;28;6874;-73
2023/01/31 06:00:19;;;;;;;;;;;;;;;7.62;58.16;101304.44;4979273;28;7275;-72
2023/01/31 06:02:46;;;;;;;;;;;;;;;7.61;58.33;101303.53;4966528;28;7196;-73
2023/01/31 06:05:13;;;;;;;;;;;;;;;7.60;57.94;101317.06;4985135;28;6780;-73
2023/01/31 06:07:39;;;;;;;;;;;;;;;7.59;58.36;101315.31;4997283;28;7129;-73
2023/01/31 06:10:07;;;;;;;;;;;;;;;7.62;58.57;101307.88;4979237;28;6831;-73
2023/01/31 06:12:34;;;;;;;;;;;;;;;7.64;58.96;101326.75;4972108;28;7109;-73
2023/01/31 06:15:00;;;;;;;;;;;;;;;7.67;58.31;101335.41;4980799;28;7205;-72
2023/01/31 06:17:26;;;;;;;;;;;;;;;7.69;58.22;101334.75;4991397;28;6792;-73
2023/01/31 06:19:51;;;;;;;;;;;;;;;7.71;57.57;101333.19;4987164;28;6847;-72
2023/01/31 06:22:20;;;;;;;;;;;;;;;7.76;57.76;101328.44;4995078;28;7158;-73
2023/01/31 06:24:46;;;;;;;;;;;;;;;7.80;58.05;101329.56;4982925;28;7070;-73
2023/01/31 06:27:12;;;;;;;;;;;;;;;7.80;58.24;101334.66;4999144;28;6780;-73
2023/01/31 06:29:37;;;;;;;;;;;;;;;7.80;57.39;101338.09;4986091;28;7916;-73
2023/01/31 06:32:03;;;;;;;;;;;;;;;7.81;57.90;101329.66;4998293;28;7366;-73
2023/01/31 06:34:29;;;;;;;;;;;;;;;7.82;57.93;101333.09;4980436;28;6800;-73
2023/01/31 06:36:57;;;;;;;;;;;;;;;7.82;58.15;101328.88;4989337;28;10114;-72
2023/01/31 06:39:23;;;;;;;;;;;;;;;7.84;56.72;101337.56;4983002;28;6792;-72
2023/01/31 06:41:49;;;;;;;;;;;;;;;7.80;56.93;101330.44;4993069;28;6799;-73
2023/01/31 06:44:14;;;;;;;;;;;;;;;7.81;57.57;101329.66;4980562;28;7267;-73
2023/01/31 06:46:40;;;;;;;;;;;;;;;7.79;57.01;101333.75;4961235;28;6999;-73
2023/01/31 06:49:06;;;;;;;;;;;;;;;7.81;57.30;101341.53;4994370;28;6772;-73
2023/01/31 06:51:31;;;;;;;;;;;;;;;7.82;57.30;101339.09;4981214;28;6911;-73
2023/01/31 06:53:57;;;;;;;;;;;;;;;7.87;57.74;101336.88;4981989;28;8135;-73
2023/01/31 06:56:22;;;;;;;;;;;;;;;7.92;56.94;101345.78;4991737;28;7633;-73
2023/01/31 06:58:48;;;;;;;;;;;;;;;7.96;56.97;101335.00;4982502;28;6824;-73
2023/01/31 07:01:15;;;;;;;;;;;;;;;8.02;57.33;101339.69;4998793;28;6954;-72
2023/01/31 07:03:41;;;;;;;;;;;;;;;8.11;57.23;101342.03;4983055;28;6795;-72
2023/01/31 07:06:08;;;;;;;;;;;;;;;8.16;57.06;101341.56;4996007;28;6848;-73
2023/01/31 07:08:34;;;;;;;;;;;;;;;8.22;57.02;101341.13;4983641;28;6792;-73
2023/01/31 07:11:01;;;;;;;;;;;;;;;8.31;57.42;101340.94;4969782;28;7425;-73
2023/01/31 07:13:27;;;;;;;;;;;;;;;8.38;56.44;101339.69;5002049;28;6799;-72
2023/01/31 07:15:54;;;;;;;;;;;;;;;8.43;55.71;101340.91;4967059;28;8385;-72
2023/01/31 07:18:20;;;;;;;;;;;;;;;8.46;56.34;101343.69;4979913;28;6796;-73
2023/01/31 07:20:45;;;;;;;;;;;;;;;8.51;55.69;101352.59;4996881;28;6775;-73
2023/01/31 07:23:11;;;;;;;;;;;;;;;8.55;56.44;101352.06;4993832;28;6848;-73
2023/01/31 07:25:37;;;;;;;;;;;;;;;8.61;55.63;101343.94;4999152;28;6915;-73
2023/01/31 07:28:03;;;;;;;;;;;;;;;8.63;56.10;101350.03;4977463;28;6817;-73
2023/01/31 07:30:30;;;;;;;;;;;;;;;8.66;55.46;101349.38;5000068;28;7311;-72
2023/01/31 07:32:55;;;;;;;;;;;;;;;8.70;55.61;101338.56;4989368;28;7262;-73
2023/01/31 07:35:21;;;;;;;;;;;;;;;8.72;54.71;101345.56;4978809;28;7282;-72
2023/01/31 07:37:50;;;;;;;;;;;;;;;8.74;54.70;101327.81;4992229;28;7336;-73
2023/01/31 07:40:15;;;;;;;;;;;;;;;8.73;55.76;101319.22;4994195;28;7065;-73
2023/01/31 07:42:41;;;;;;;;;;;;;;;8.78;55.58;101324.66;4994728;28;7158;-72
2023/01/31 07:45:11;;;;;;;;;;;;;;;8.82;55.41;101320.66;4980965;28;6978;-73
2023/01/31 07:47:37;;;;;;;;;;;;;;;8.87;55.12;101329.53;4977388;28;7247;-73
2023/01/31 07:50:03;;;;;;;;;;;;;;;8.88;54.64;101308.28;4979067;28;7403;-72
2023/01/31 07:52:31;;;;;;;;;;;;;;;8.87;54.63;101309.97;4970289;28;6952;-73
2023/01/31 07:54:57;;;;;;;;;;;;;;;8.91;55.20;101316.19;4993529;28;7024;-73
2023/01/31 07:57:22;;;;;;;;;;;;;;;8.92;54.42;101319.63;4992485;28;7379;-73
2023/01/31 07:59:48;;;;;;;;;;;;;;;8.96;54.42;101322.50;4984027;28;6890;-73
2023/01/31 08:05:01;;;;;;;;;;;;;;;8.98;55.01;101314.94;4997269;28;6808;-73
2023/01/31 08:07:28;;;;;;;;;;;;;;;9.00;55.48;101311.72;4998848;28;7194;-73
2023/01/31 08:09:54;;;;;;;;;;;;;;;9.09;54.58;101331.03;4980303;28;9068;-73
2023/01/31 08:12:21;;;;;;;;;;;;;;;9.14;54.58;101317.78;4986041;28;6912;-73
2023/01/31 08:14:46;;;;;;;;;;;;;;;9.16;54.38;101294.84;4986342;28;6856;-73
2023/01/31 08:17:12;;;;;;;;;;;;;;;9.19;53.97;101294.16;4985568;28;7095;-73
2023/01/31 08:19:38;;;;;;;;;;;;;;;9.20;54.95;101301.94;4998013;28;7181;-73
2023/01/31 08:22:04;;;;;;;;;;;;;;;9.23;54.95;101294.47;4986210;28;6957;-73
2023/01/31 08:24:31;;;;;;;;;;;;;;;9.26;54.93;101286.13;4987913;28;6848;-73
2023/01/31 08:26:58;;;;;;;;;;;;;;;9.30;55.10;101290.66;4997101;28;6843;-73
2023/01/31 08:29:24;;;;;;;;;;;;;;;9.37;55.16;101297.09;4983349;28;6796;-73
2023/01/31 08:31:51;;;;;;;;;;;;;;;9.45;54.33;101301.03;4987518;28;6971;-73
2023/01/31 08:34:17;;;;;;;;;;;;;;;9.48;54.30;101301.25;4983470;28;7059;-73
2023/01/31 08:36:43;;;;;;;;;;;;;;;9.54;54.81;101301.66;4982641;28;7964;-73
2023/01/31 08:39:09;;;;;;;;;;;;;;;9.58;55.15;101295.97;4987632;28;6946;-73
2023/01/31 08:41:37;;;;;;;;;;;;;;;9.64;54.45;101294.59;5003833;28;7102;-73
2023/01/31 08:44:05;;;;;;;;;;;;;;;9.69;54.77;101281.28;4983602;28;6784;-73
2023/01/31 08:46:34;;;;;;;;;;;;;;;9.74;54.18;101281.59;4999544;28;6784;-73
2023/01/31 08:49:03;;;;;;;;;;;;;;;9.75;54.22;101279.94;4985194;28;6813;-73
2023/01/31 08:51:29;;;;;;;;;;;;;;;9.74;54.05;101271.34;4979611;28;8331;-73
2023/01/31 08:53:55;;;;;;;;;;;;;;;9.76;54.47;101272.38;4981081;28;7149;-73
2023/01/31 08:56:24;;;;;;;;;;;;;;;9.74;54.64;101263.69;4977771;28;6943;-73
2023/01/31 08:58:51;;;;;;;;;;;;;;;9.73;54.29;101261.91;4987190;28;6796;-73
2023/01/31 09:01:19;;;;;;;;;;;;;;;9.75;54.34;101265.44;4995180;28;7007;-73
2023/01/31 09:03:47;;;;;;;;;;;;;;;9.77;54.71;101276.69;4997832;28;6796;-73
2023/01/31 09:06:20;;;;;;;;;;;;;;;9.78;53.79;101273.34;4996619;28;7056;-73
2023/01/31 09:08:46;;;;;;;;;;;;;;;9.78;54.54;101264.78;4988088;28;7186;-73
2023/01/31 09:11:16;;;;;;;;;;;;;;;9.69;53.68;101263.38;5003290;28;6784;-73
2023/01/31 09:13:42;;;;;;;;;;;;;;;9.66;54.50;101260.63;4989846;28;6799;-73
2023/01/31 09:16:10;;;;;;;;;;;;;;;9.69;53.95;101250.56;4996774;28;6848;-73
2023/01/31 09:18:38;;;;;;;;;;;;;;;9.69;54.75;101230.09;5002264;28;6975;-73
2023/01/31 09:21:23;;;;;;;;;;;;;;;9.69;55.11;101244.59;4981984;28;7267;-73
2023/01/31 09:24:01;;;;;;;;;;;;;;;9.71;55.04;101253.25;4982933;28;7110;-73
2023/01/31 09:26:27;;;;;;;;;;;;;;;9.68;54.82;101246.25;4985624;28;6867;-73
2023/01/31 09:28:54;;;;;;;;;;;;;;;9.65;55.27;101248.63;4988742;28;6772;-73
2023/01/31 09:31:21;;;;;;;;;;;;;;;9.55;55.71;101249.69;5001301;28;6838;-73
2023/01/31 09:33:46;;;;;;;;;;;;;;;9.50;55.56;101245.94;4997567;28;7031;-73
2023/01/31 09:36:19;;;;;;;;;;;;;;;9.43;55.62;101243.75;4985076;28;6776;-73
2023/01/31 09:38:45;;;;;;;;;;;;;;;9.41;56.65;101243.66;4984054;28;6796;-73
2023/01/31 09:41:36;;;;;;;;;;;;;;;9.42;56.78;101252.22;4977068;28;7295;-73
2023/01/31 09:44:11;;;;;;;;;;;;;;;9.36;56.45;101245.03;4961728;28;8279;-72
2023/01/31 09:46:43;;;;;;;;;;;;;;;9.35;57.31;101242.34;4975686;28;6804;-73
2023/01/31 09:49:27;;;;;;;;;;;;;;;9.38;57.37;101234.91;4990462;28;7204;-73
2023/01/31 09:52:03;;;;;;;;;;;;;;;9.42;57.13;101221.53;4986782;28;7038;-73
2023/01/31 09:54:36;;;;;;;;;;;;;;;9.50;57.73;101225.47;4991892;28;6803;-73
2023/01/31 09:57:11;;;;;;;;;;;;;;;9.61;57.81;101220.16;4976660;28;6832;-73
2023/01/31 10:00:00;;;;;;;;;;;;;;;9.69;56.81;101221.56;4980226;28;7058;-73
2023/01/31 10:02:49;;;;;;;;;;;;;;;9.78;56.83;101223.81;4976980;28;7198;-73
2023/01/31 10:05:14;;;;;;;;;;;;;;;9.85;56.68;101219.19;4981752;28;7848;-73
2023/01/31 10:08:03;;;;;;;;;;;;;;;9.92;57.21;101222.13;4982438;28;7004;-73
2023/01/31 10:10:38;;;;;;;;;;;;;;;10.01;56.35;101225.28;4979187;28;6979;-73
2023/01/31 10:13:18;;;;;;;;;;;;;;;10.11;56.75;101231.88;4968314;28;7336;-73
2023/01/31 10:15:53;;;;;;;;;;;;;;;10.19;56.56;101227.22;4985207;28;7379;-73
2023/01/31 10:18:35;;;;;;;;;;;;;;;10.24;56.21;101207.94;5001762;28;6800;-73
2023/01/31 10:21:12;;;;;;;;;;;;;;;10.24;55.58;101210.50;4968985;28;7137;-73
2023/01/31 10:24:09;;;;;;;;;;;;;;;10.23;56.36;101194.22;4979561;28;6820;-73
2023/01/31 10:26:40;;;;;;;;;;;;;;;10.21;56.04;101193.25;4988060;28;8229;-73
2023/01/31 10:29:33;;;;;;;;;;;;;;;10.19;56.79;101183.69;4970746;28;6976;-73
2023/01/31 10:32:13;;;;;;;;;;;;;;;10.15;56.86;101182.59;4994132;28;7047;-73
2023/01/31 10:34:55;;;;;;;;;;;;;;;10.18;57.56;101189.59;4995323;28;7206;-73
2023/01/31 10:37:39;;;;;;;;;;;;;;;10.25;57.82;101178.94;4992918;28;6800;-73
2023/01/31 10:40:16;;;;;;;;;;;;;;;10.31;57.84;101175.88;4987237;28;7256;-73
2023/01/31 10:42:56;;;;;;;;;;;;;;;10.31;57.96;101165.63;4984156;28;6997;-73
2023/01/31 10:45:29;;;;;;;;;;;;;;;10.28;57.49;101163.75;4976384;28;7404;-73
2023/01/31 10:48:24;;;;;;;;;;;;;;;10.33;58.45;101159.78;4954143;28;6985;-73
2023/01/31 10:51:05;;;;;;;;;;;;;;;10.39;57.89;101151.63;4982157;28;7472;-73
2023/01/31 10:54:11;;;;;;;;;;;;;;;10.48;58.00;101143.63;4992265;28;6858;-73
2023/01/31 10:56:44;;;;;;;;;;;;;;;10.55;57.98;101153.44;4993751;28;7370;-73
2023/01/31 10:59:29;;;;;;;;;;;;;;;10.57;57.67;101156.97;4993075;28;7220;-73
2023/01/31 11:01:54;;;;;;;;;;;;;;;10.60;57.69;101130.66;4990370;28;7926;-73
2023/01/31 11:04:23;;;;;;;;;;;;;;;10.68;57.63;101125.19;4993645;28;8517;-74
2023/01/31 11:06:49;;;;;;;;;;;;;;;10.78;57.82;101125.72;4993868;28;6804;-73
2023/01/31 11:09:15;;;;;;;;;;;;;;;10.88;57.37;101111.78;4981900;28;6959;-74
2023/01/31 11:12:04;;;;;;;;;;;;;;;10.99;57.33;101110.72;4966104;28;6842;-73
2023/01/31 11:14:30;;;;;;;;;;;;;;;10.95;56.80;101112.22;4983661;28;6988;-73
2023/01/31 11:17:13;;;;;;;;;;;;;;;10.96;57.15;101120.78;4969042;28;6979;-73
2023/01/31 11:19:51;;;;;;;;;;;;;;;10.96;57.31;101103.72;4981434;28;7218;-73
2023/01/31 11:22:28;;;;;;;;;;;;;;;10.97;57.23;101112.31;4982400;28;6792;-73
2023/01/31 11:24:57;;;;;;;;;;;;;;;11.01;57.12;101115.91;4985919;28;6816;-73
2023/01/31 11:27:42;;;;;;;;;;;;;;;11.08;56.99;101142.03;4986199;28;6792;-73
2023/01/31 11:30:30;;;;;;;;;;;;;;;11.15;56.84;101117.59;4978728;28;6796;-73
2023/01/31 11:32:57;;;;;;;;;;;;;;;11.19;56.68;101111.81;4977903;28;11463;-73
2023/01/31 11:35:34;;;;;;;;;;;;;;;11.17;56.49;101121.13;4978472;28;7057;-73
2023/01/31 11:38:09;;;;;;;;;;;;;;;11.17;56.13;101128.81;4963095;28;7007;-74
2023/01/31 11:40:39;;;;;;;;;;;;;;;11.11;56.48;101113.09;4981950;28;7177;-74
2023/01/31 11:43:25;;;;;;;;;;;;;;;11.08;56.57;101107.78;4984882;28;7035;-74
2023/01/31 11:46:01;;;;;;;;;;;;;;;11.07;56.52;101108.56;4982204;28;7144;-73
2023/01/31 11:48:39;;;;;;;;;;;;;;;11.08;56.28;101097.50;4978688;28;6800;-73
2023/01/31 11:51:05;;;;;;;;;;;;;;;11.12;56.99;101091.78;4976625;28;6812;-73
2023/01/31 11:53:50;;;;;;;;;;;;;;;11.20;56.72;101093.09;4979024;28;7048;-73
2023/01/31 11:56:27;;;;;;;;;;;;;;;11.21;56.24;101091.41;4989457;28;6827;-73
2023/01/31 11:59:01;;;;;;;;;;;;;;;11.24;56.32;101074.50;4976409;28;7002;-73
2023/01/31 12:01:27;;;;;;;;;;;;;;;11.23;56.51;101093.25;4981847;28;6808;-73
2023/01/31 12:03:58;;;;;;;;;;;;;;;11.22;56.22;101088.94;4979930;28;7900;-73
2023/01/31 12:06:38;;;;;;;;;;;;;;;11.19;56.30;101078.47;4994908;28;7439;-74
2023/01/31 12:09:24;;;;;;;;;;;;;;;11.19;56.42;101072.47;4967313;28;7053;-74
2023/01/31 12:11:57;;;;;;;;;;;;;;;11.20;56.68;101074.25;4985351;28;6799;-73
2023/01/31 12:14:39;;;;;;;;;;;;;;;11.23;56.73;101067.59;4982109;28;7050;-73
2023/01/31 12:17:13;;;;;;;;;;;;;;;11.33;56.84;101061.28;4982191;28;6985;-74
2023/01/31 12:20:10;;;;;;;;;;;;;;;11.38;56.72;101064.09;4983046;28;7208;-73
2023/01/31 12:22:54;;;;;;;;;;;;;;;11.41;56.65;101056.59;4983512;28;6887;-73
2023/01/31 12:25:54;;;;;;;;;;;;;;;11.40;56.38;101062.53;4985923;28;6807;-74
2023/01/31 12:28:49;;;;;;;;;;;;;;;11.34;55.93;101064.75;4986117;28;6796;-73
2023/01/31 12:31:43;;;;;;;;;;;;;;;11.31;56.29;101069.72;4984516;28;6788;-73
2023/01/31 12:34:39;;;;;;;;;;;;;;;11.25;56.14;101060.88;4985718;28;8157;-73
2023/01/31 12:37:08;;;;;;;;;;;;;;;11.19;56.30;101063.06;4993676;28;7076;-73
2023/01/31 12:39:56;;;;;;;;;;;;;;;11.20;56.62;101070.00;4966825;28;6999;-74
2023/01/31 12:42:50;;;;;;;;;;;;;;;11.17;56.28;101067.25;4990040;28;7015;-74
2023/01/31 12:45:45;;;;;;;;;;;;;;;11.15;56.74;101073.09;4984692;28;7378;-73
2023/01/31 12:48:34;;;;;;;;;;;;;;;11.14;56.85;101067.09;4968349;28;7027;-73
2023/01/31 12:51:44;;;;;;;;;;;;;;;11.19;57.09;101073.34;4971549;28;6990;-73
2023/01/31 12:54:28;;;;;;;;;;;;;;;11.24;56.82;101069.38;4985834;28;6819;-73
2023/01/31 12:57:18;;;;;;;;;;;;;;;11.30;56.86;101049.97;4998459;28;6835;-73
2023/01/31 13:00:17;;;;;;;;;;;;;;;11.34;57.02;101037.38;4980741;28;6991;-73
2023/01/31 13:02:53;;;;;;;;;;;;;;;11.39;57.10;101027.38;4967251;28;13004;-73
2023/01/31 13:05:33;;;;;;;;;;;;;;;11.51;57.39;101043.47;4982014;28;6975;-73
2023/01/31 13:08:23;;;;;;;;;;;;;;;11.65;56.54;101045.88;4979736;28;6992;-73
2023/01/31 13:11:18;;;;;;;;;;;;;;;11.68;56.48;101033.19;4997366;28;7668;-73
2023/01/31 13:14:00;;;;;;;;;;;;;;;11.69;56.17;101042.69;4986252;28;6996;-73
2023/01/31 13:16:38;;;;;;;;;;;;;;;11.70;56.32;101033.28;4978058;28;6860;-74
2023/01/31 13:19:18;;;;;;;;;;;;;;;11.68;56.17;101040.91;4985253;28;6812;-74
2023/01/31 13:21:50;;;;;;;;;;;;;;;11.68;56.42;101030.63;4985774;28;6864;-74
2023/01/31 13:24:45;;;;;;;;;;;;;;;11.74;56.28;101042.94;4988513;28;7332;-73
2023/01/31 13:27:33;;;;;;;;;;;;;;;11.77;56.32;101050.81;4991046;28;7975;-73
2023/01/31 13:30:22;;;;;;;;;;;;;;;11.78;56.45;101043.19;4974157;28;6964;-73
2023/01/31 13:32:51;;;;;;;;;;;;;;;11.80;56.00;101040.69;4981515;28;11206;-73
2023/01/31 13:35:31;;;;;;;;;;;;;;;11.77;55.97;101053.38;4982753;28;6804;-73
2023/01/31 13:38:12;;;;;;;;;;;;;;;11.75;56.61;101066.13;4981729;28;7257;-73